Time;durP1;ratioP1;P1;durP2;ratioP2;P2;SDS_P1;SDS_P2;PMS_P1;PMS_P2;Temp;Humidity;BMP_temperature;BMP_pressure;BME280_temperature;BME280_humidity;BME280_pressure;Samples;Min_cycle;Max_cycle;Signal;HPM_P1;HPM_P2
2022/10/08 00:01:26;;;;;;;1.25;0.50;;;;;;;25.79;36.36;102013.19;5035333;28;20538;-55
2022/10/08 00:03:56;;;;;;;3.72;1.00;;;;;;;25.80;36.33;102007.09;5035319;28;20033;-55
2022/10/08 00:06:27;;;;;;;1.40;0.55;;;;;;;25.76;36.08;102011.38;5035353;28;20036;-55
2022/10/08 00:08:57;;;;;;;1.70;0.60;;;;;;;25.71;36.48;102006.88;5035093;28;20021;-53
2022/10/08 00:11:29;;;;;;;1.05;0.50;;;;;;;25.74;36.28;102006.94;5050302;28;20021;-54
2022/10/08 00:13:56;;;;;;;0.95;0.60;;;;;;;25.69;36.44;102011.19;5035062;28;20460;-55
2022/10/08 00:16:26;;;;;;;1.05;0.43;;;;;;;25.58;36.38;102006.59;5035073;28;20029;-54
2022/10/08 00:18:59;;;;;;;2.05;0.68;;;;;;;25.60;36.68;102012.78;5035404;28;20025;-55
2022/10/08 00:21:31;;;;;;;2.25;0.85;;;;;;;25.61;36.37;102006.69;5034178;28;20049;-55
2022/10/08 00:24:00;;;;;;;1.35;0.60;;;;;;;25.62;36.42;102008.47;5034924;28;20037;-55
2022/10/08 00:26:30;;;;;;;1.48;0.40;;;;;;;25.61;36.78;101995.25;5033527;28;20421;-55
2022/10/08 00:29:01;;;;;;;1.52;0.40;;;;;;;25.61;36.64;102011.94;5034776;28;20072;-54
2022/10/08 00:31:32;;;;;;;1.33;0.60;;;;;;;25.54;36.66;102004.75;5034805;28;20482;-54
2022/10/08 00:34:04;;;;;;;1.92;0.88;;;;;;;25.55;36.30;102005.66;5034747;28;20033;-53
2022/10/08 00:36:34;;;;;;;2.15;0.80;;;;;;;25.55;36.40;101995.16;5034366;28;20048;-55
2022/10/08 00:39:07;;;;;;;1.25;0.45;;;;;;;25.59;36.39;102007.47;5034410;28;20116;-54
2022/10/08 00:41:37;;;;;;;3.15;0.80;;;;;;;25.60;36.50;102007.53;5034104;28;20522;-55
2022/10/08 00:44:43;;;;;;;1.70;0.52;;;;;;;25.60;36.03;102010.16;5034607;28;20391;-56
2022/10/08 00:47:18;;;;;;;2.28;0.65;;;;;;;25.62;36.22;102007.56;5031201;28;20034;-54
2022/10/08 00:49:48;;;;;;;7.30;0.80;;;;;;;25.64;36.20;102008.47;5033421;28;20037;-55
2022/10/08 00:52:18;;;;;;;1.08;0.50;;;;;;;25.59;36.12;102011.00;5049237;28;20041;-56
2022/10/08 00:54:49;;;;;;;2.65;0.80;;;;;;;25.52;36.45;102016.97;5034468;28;20497;-55
2022/10/08 00:57:17;;;;;;;1.42;0.47;;;;;;;25.53;36.51;102012.63;5034296;28;20467;-55
2022/10/08 00:59:46;;;;;;;1.92;0.60;;;;;;;25.58;36.12;102017.13;5034134;28;20034;-53
2022/10/08 01:02:14;;;;;;;2.05;0.60;;;;;;;25.56;36.49;102010.94;5034313;28;20390;-53
2022/10/08 01:04:43;;;;;;;4.28;1.35;;;;;;;25.54;36.33;102012.63;5034193;28;20025;-55
2022/10/08 01:07:26;;;;;;;2.72;0.40;;;;;;;25.55;36.12;102013.53;5032873;28;20024;-54
2022/10/08 01:10:06;;;;;;;2.78;0.90;;;;;;;25.47;36.37;102016.88;5032926;28;20053;-55
2022/10/08 01:12:54;;;;;;;1.63;0.60;;;;;;;25.51;36.24;102015.19;5032820;28;20079;-56
2022/10/08 01:15:44;;;;;;;1.33;0.70;;;;;;;25.45;36.53;102012.44;5033787;28;20112;-55
2022/10/08 01:18:20;;;;;;;2.00;0.47;;;;;;;25.53;36.15;102018.75;5027959;28;20555;-54
2022/10/08 01:21:04;;;;;;;1.85;0.82;;;;;;;25.51;36.05;102024.81;5033584;28;20044;-55
2022/10/08 01:23:52;;;;;;;1.50;0.70;;;;;;;25.41;36.40;102026.31;5033649;28;20044;-55
2022/10/08 01:26:42;;;;;;;2.28;0.60;;;;;;;25.47;36.34;102037.00;5024879;28;20103;-56
2022/10/08 01:29:34;;;;;;;1.08;0.43;;;;;;;25.47;36.25;102034.38;5043710;28;20037;-55
2022/10/08 01:32:14;;;;;;;1.67;0.60;;;;;;;25.40;36.20;102035.03;5033099;28;20546;-55
2022/10/08 01:34:50;;;;;;;0.93;0.50;;;;;;;25.44;36.45;102039.56;5049320;28;20038;-55
2022/10/08 01:37:25;;;;;;;3.25;0.70;;;;;;;25.48;35.91;102046.66;5048772;28;20056;-54
2022/10/08 01:39:54;;;;;;;2.35;0.90;;;;;;;25.45;36.43;102043.97;5033527;28;20029;-56
2022/10/08 01:42:23;;;;;;;4.10;0.90;;;;;;;25.49;36.09;102045.78;5033282;28;20025;-54
2022/10/08 01:44:55;;;;;;;12.30;1.23;;;;;;;25.49;36.33;102051.03;5033340;28;20033;-54
2022/10/08 01:47:26;;;;;;;4.20;0.90;;;;;;;25.48;36.10;102054.56;5032420;28;20117;-55
2022/10/08 01:50:03;;;;;;;2.78;0.60;;;;;;;25.43;36.28;102038.66;5048289;28;20025;-53
2022/10/08 01:52:35;;;;;;;1.55;0.60;;;;;;;25.46;36.10;102041.34;5033102;28;20446;-54
2022/10/08 01:55:07;;;;;;;1.70;0.80;;;;;;;25.46;35.98;102035.22;5032342;28;20048;-54
2022/10/08 01:57:37;;;;;;;1.80;0.77;;;;;;;25.43;36.33;102045.66;5033304;28;20028;-54
2022/10/08 02:00:09;;;;;;;2.67;0.75;;;;;;;25.38;36.11;102032.38;5031725;28;20022;-55
2022/10/08 02:02:37;;;;;;;1.55;0.82;;;;;;;25.38;36.20;102040.28;5032133;28;20025;-53
2022/10/08 02:05:05;;;;;;;1.00;0.55;;;;;;;25.43;36.55;102043.91;5033106;28;20033;-54
2022/10/08 02:07:37;;;;;;;1.38;0.60;;;;;;;25.41;36.06;102053.44;5033097;28;20041;-54
2022/10/08 02:10:17;;;;;;;2.40;1.00;;;;;;;25.41;36.38;102045.56;5033004;28;20060;-54
2022/10/08 02:12:47;;;;;;;1.83;0.70;;;;;;;25.47;36.18;102058.91;5033030;28;20057;-54
2022/10/08 02:15:37;;;;;;;1.65;0.55;;;;;;;25.44;36.49;102065.81;5032878;28;20517;-54
2022/10/08 02:18:11;;;;;;;1.40;0.70;;;;;;;25.43;36.32;102069.31;5028530;28;20490;-55
2022/10/08 02:21:01;;;;;;;1.90;0.73;;;;;;;25.36;36.40;102072.56;5048536;28;20034;-52
2022/10/08 02:23:32;;;;;;;1.40;0.60;;;;;;;25.33;36.43;102076.03;5032712;28;20032;-55
2022/10/08 02:26:03;;;;;;;1.63;0.60;;;;;;;25.38;36.57;102069.16;5032991;28;20025;-55
2022/10/08 02:28:51;;;;;;;1.52;0.60;;;;;;;25.32;36.46;102056.75;5031760;28;20432;-52
2022/10/08 02:31:26;;;;;;;1.23;0.60;;;;;;;25.31;36.48;102048.84;5032452;28;20112;-55
2022/10/08 02:33:55;;;;;;;;;;;;;;;25.36;36.54;102048.94;5032018;28;20037;-55
2022/10/08 02:36:27;;;;;;;2.83;0.93;;;;;;;25.36;36.37;102059.44;5031412;28;19913;-55
2022/10/08 02:38:56;;;;;;;1.83;0.70;;;;;;;25.36;36.19;102062.06;5032989;28;20063;-54
2022/10/08 02:41:30;;;;;;;2.88;0.60;;;;;;;25.34;36.64;102065.53;5047988;28;20113;-54
2022/10/08 02:44:01;;;;;;;1.60;0.60;;;;;;;25.36;36.46;102064.69;5033689;28;20367;-54
2022/10/08 02:46:34;;;;;;;0.60;0.40;;;;;;;25.38;36.45;102073.50;5035766;28;20026;-54
2022/10/08 02:49:06;;;;;;;2.35;0.77;;;;;;;25.33;36.20;102060.28;5035356;28;20036;-55
2022/10/08 02:51:38;;;;;;;1.42;0.50;;;;;;;25.34;36.28;102059.44;5036358;28;20114;-54
2022/10/08 02:54:07;;;;;;;2.20;0.70;;;;;;;25.33;36.74;102057.66;5036510;28;20032;-55
2022/10/08 02:56:45;;;;;;;2.63;0.65;;;;;;;25.27;36.75;102057.47;5036567;28;20025;-53
2022/10/08 02:59:14;;;;;;;1.27;0.50;;;;;;;25.30;36.60;102050.59;5035156;28;20030;-54
2022/10/08 03:01:48;;;;;;;2.03;0.60;;;;;;;25.38;36.44;102055.13;5036544;28;20428;-54
2022/10/08 03:04:21;;;;;;;1.73;0.70;;;;;;;25.29;36.27;102046.19;5051583;28;20037;-54
2022/10/08 03:06:49;;;;;;;1.20;0.60;;;;;;;25.38;36.23;102037.66;5036809;28;20360;-56
2022/10/08 03:09:18;;;;;;;2.20;1.00;;;;;;;25.27;36.33;102042.63;5036364;28;20022;-55
2022/10/08 03:11:47;;;;;;;1.80;0.50;;;;;;;25.27;36.72;102047.88;5034988;28;20037;-54
2022/10/08 03:14:16;;;;;;;1.27;0.50;;;;;;;25.29;36.84;102045.28;5036112;28;20064;-54
2022/10/08 03:16:46;;;;;;;1.48;0.63;;;;;;;25.30;36.55;102050.59;5051529;28;20105;-54
2022/10/08 03:19:16;;;;;;;1.30;0.70;;;;;;;25.29;36.69;102047.91;5051839;28;20021;-55
2022/10/08 03:21:46;;;;;;;2.17;0.80;;;;;;;25.27;36.71;102047.88;5035691;28;20029;-55
2022/10/08 03:24:15;;;;;;;2.33;0.77;;;;;;;25.28;36.45;102043.50;5036247;28;20029;-54
2022/10/08 03:26:43;;;;;;;3.08;0.70;;;;;;;25.24;36.72;102041.63;5036092;28;20025;-55
2022/10/08 03:29:10;;;;;;;2.20;0.65;;;;;;;25.27;36.75;102039.09;5035776;28;20056;-55
2022/10/08 03:31:39;;;;;;;1.90;0.65;;;;;;;25.27;36.40;102045.25;5036315;28;20408;-54
2022/10/08 03:34:10;;;;;;;1.10;0.50;;;;;;;25.26;36.38;102043.47;5035535;28;20072;-55
2022/10/08 03:36:40;;;;;;;2.08;0.57;;;;;;;25.22;36.60;102044.25;5035899;28;20029;-54
2022/10/08 03:39:12;;;;;;;1.98;0.73;;;;;;;25.18;36.80;102038.03;5049556;28;20383;-55
2022/10/08 03:41:42;;;;;;;3.25;0.80;;;;;;;25.24;36.96;102041.63;5015817;28;20399;-55
2022/10/08 03:44:11;;;;;;;1.73;0.82;;;;;;;25.20;36.78;102040.69;5016473;28;20091;-55
2022/10/08 03:46:39;;;;;;;1.15;0.60;;;;;;;25.23;36.55;102045.16;5014624;28;20022;-55
2022/10/08 03:49:08;;;;;;;2.83;0.80;;;;;;;25.21;36.79;102041.59;5015942;28;20101;-55
2022/10/08 03:51:36;;;;;;;1.75;0.55;;;;;;;25.26;36.65;102046.09;5015491;28;20077;-55
2022/10/08 03:54:05;;;;;;;2.53;0.98;;;;;;;25.25;36.83;102052.19;5015565;28;20030;-56
2022/10/08 03:56:34;;;;;;;2.88;0.88;;;;;;;25.23;36.73;102053.03;5014433;28;20095;-55
2022/10/08 03:59:03;;;;;;;1.67;0.68;;;;;;;25.10;36.87;102036.06;5015750;28;20095;-55
2022/10/08 04:01:33;;;;;;;1.40;0.70;;;;;;;25.24;36.82;102060.94;5015752;28;20427;-54
2022/10/08 04:04:02;;;;;;;1.23;0.45;;;;;;;25.26;36.80;102067.13;5015164;28;20069;-56
2022/10/08 04:06:30;;;;;;;1.80;0.60;;;;;;;25.21;36.63;102063.47;5015466;28;20430;-55
2022/10/08 04:09:00;;;;;;;2.97;0.80;;;;;;;25.27;36.48;102065.34;5015410;28;20022;-55
2022/10/08 04:11:30;;;;;;;3.97;0.52;;;;;;;25.21;36.79;102068.72;5015886;28;20049;-55
2022/10/08 04:13:59;;;;;;;2.67;1.20;;;;;;;25.19;36.48;102062.53;5015468;28;20018;-54
2022/10/08 04:16:27;;;;;;;2.15;0.80;;;;;;;25.12;36.70;102051.00;5015477;28;20025;-55
2022/10/08 04:18:56;;;;;;;2.55;1.00;;;;;;;25.18;36.99;102063.38;5015230;28;20022;-55
2022/10/08 04:21:24;;;;;;;3.75;1.10;;;;;;;25.19;36.95;102065.16;5015276;28;20030;-55
2022/10/08 04:23:53;;;;;;;2.05;0.75;;;;;;;25.18;36.98;102073.91;5015286;28;20037;-55
2022/10/08 04:26:22;;;;;;;2.40;0.80;;;;;;;25.26;36.69;102087.22;5015288;28;20029;-54
2022/10/08 04:28:50;;;;;;;1.67;0.70;;;;;;;25.25;36.75;102085.44;5014776;28;20395;-55
2022/10/08 04:31:20;;;;;;;2.85;0.77;;;;;;;25.24;36.56;102094.16;5014825;28;20081;-54
2022/10/08 04:33:49;;;;;;;2.78;0.70;;;;;;;25.25;36.90;102099.47;5014696;28;20081;-55
2022/10/08 04:36:23;;;;;;;2.58;0.90;;;;;;;25.21;37.16;102096.75;5014971;28;20041;-54
2022/10/08 04:38:52;;;;;;;2.10;0.70;;;;;;;25.20;36.67;102106.34;5014994;28;20025;-56
2022/10/08 04:41:23;;;;;;;3.10;0.95;;;;;;;25.15;37.10;102103.59;5014714;28;20438;-54
2022/10/08 04:43:52;;;;;;;2.13;0.80;;;;;;;25.14;36.74;102101.81;5014279;28;20121;-55
2022/10/08 04:46:21;;;;;;;2.28;0.65;;;;;;;25.20;36.69;102103.72;5013322;28;20121;-54
2022/10/08 04:48:52;;;;;;;1.77;0.60;;;;;;;25.20;36.72;102113.34;5014651;28;20025;-54
2022/10/08 04:51:22;;;;;;;2.10;0.80;;;;;;;25.19;36.78;102112.44;5013990;28;20492;-52
2022/10/08 04:53:50;;;;;;;3.10;0.90;;;;;;;25.21;37.00;102116.00;5014667;28;20030;-52
2022/10/08 04:56:22;;;;;;;2.58;0.90;;;;;;;25.15;36.86;102119.34;5014527;28;20481;-54
2022/10/08 04:58:51;;;;;;;2.67;0.85;;;;;;;25.18;36.83;102113.28;5014480;28;20038;-55
2022/10/08 05:01:20;;;;;;;1.48;0.68;;;;;;;25.14;37.01;102111.44;5014395;28;20030;-55
2022/10/08 05:03:50;;;;;;;2.80;0.95;;;;;;;25.14;36.82;102114.06;5014404;28;20032;-55
2022/10/08 05:06:21;;;;;;;4.45;1.55;;;;;;;25.15;37.20;102113.22;5014211;28;20025;-54
2022/10/08 05:08:50;;;;;;;6.25;1.20;;;;;;;25.24;36.81;102109.91;5014664;28;20032;-54
2022/10/08 05:11:18;;;;;;;2.55;0.98;;;;;;;25.24;37.00;102112.53;5013768;28;20029;-55
2022/10/08 05:13:51;;;;;;;2.50;0.70;;;;;;;25.18;36.95;102110.66;5014299;28;20080;-55
2022/10/08 05:16:20;;;;;;;2.05;0.75;;;;;;;25.21;36.89;102116.00;5013750;28;20032;-53
2022/10/08 05:18:49;;;;;;;2.40;0.80;;;;;;;25.29;36.80;102121.44;5028991;28;20085;-54
2022/10/08 05:21:19;;;;;;;3.15;1.10;;;;;;;25.25;36.76;102120.47;5014166;28;20033;-55
2022/10/08 05:23:48;;;;;;;2.45;0.77;;;;;;;25.27;36.63;102124.03;5014047;28;20037;-56
2022/10/08 05:26:19;;;;;;;2.65;0.77;;;;;;;25.25;36.72;102123.13;5028950;28;20029;-55
2022/10/08 05:28:48;;;;;;;2.58;0.75;;;;;;;25.28;36.84;102120.56;5014019;28;20113;-55
2022/10/08 05:31:16;;;;;;;1.85;0.85;;;;;;;25.27;36.60;102108.28;5018756;28;20057;-56
2022/10/08 05:33:43;;;;;;;2.30;1.00;;;;;;;25.18;36.63;102111.56;5033764;28;20037;-53
2022/10/08 05:36:17;;;;;;;5.10;0.90;;;;;;;25.20;36.85;102122.09;5033627;28;20036;-55
2022/10/08 05:38:45;;;;;;;1.70;0.70;;;;;;;25.24;37.04;102116.06;5048731;28;20071;-55
2022/10/08 05:41:15;;;;;;;3.63;0.95;;;;;;;25.20;36.64;102090.59;5033622;28;20301;-55
2022/10/08 05:43:44;;;;;;;2.08;0.82;;;;;;;25.24;36.88;102110.81;5033489;28;20036;-55
2022/10/08 05:46:12;;;;;;;2.58;0.85;;;;;;;25.21;36.86;102116.00;5033266;28;20030;-55
2022/10/08 05:48:44;;;;;;;2.05;0.68;;;;;;;25.24;36.87;102126.59;5033449;28;20088;-50
2022/10/08 05:51:17;;;;;;;3.47;0.93;;;;;;;25.19;36.99;102120.31;5032900;28;20053;-55
2022/10/08 05:53:48;;;;;;;3.25;0.90;;;;;;;25.18;36.98;102127.31;5033307;28;20052;-55
2022/10/08 05:56:20;;;;;;;2.55;0.70;;;;;;;25.18;37.01;102126.41;5033416;28;20022;-55
2022/10/08 05:58:49;;;;;;;3.25;0.90;;;;;;;25.18;36.94;102140.44;5033539;28;20091;-54
2022/10/08 06:01:19;;;;;;;1.83;0.90;;;;;;;25.18;37.26;102144.78;5033411;28;20017;-55
2022/10/08 06:03:59;;;;;;;3.22;0.70;;;;;;;25.12;37.06;102145.53;5033318;28;20030;-55
2022/10/08 06:06:28;;;;;;;2.90;0.98;;;;;;;25.21;36.97;102146.63;5033219;28;20383;-54
2022/10/08 06:08:57;;;;;;;5.65;0.68;;;;;;;25.13;37.03;102151.69;5032980;28;20064;-54
2022/10/08 06:11:26;;;;;;;4.60;0.73;;;;;;;25.12;37.12;102147.28;5032769;28;20029;-55
2022/10/08 06:13:57;;;;;;;5.65;1.17;;;;;;;25.11;37.06;102150.75;5033189;28;20025;-54
2022/10/08 06:16:25;;;;;;;3.90;0.65;;;;;;;25.15;37.25;102153.50;5033065;28;20045;-56
2022/10/08 06:18:53;;;;;;;2.25;0.60;;;;;;;25.05;37.34;102137.44;5032242;28;20022;-55
2022/10/08 06:21:24;;;;;;;2.58;0.98;;;;;;;25.18;37.46;102153.59;5032768;28;20059;-54
2022/10/08 06:23:53;;;;;;;2.97;0.90;;;;;;;25.14;37.23;102156.09;5032378;28;20033;-54
2022/10/08 06:26:25;;;;;;;1.30;0.55;;;;;;;25.14;37.41;102161.34;5031136;28;20075;-55
2022/10/08 06:28:54;;;;;;;2.65;1.00;;;;;;;25.12;37.25;102160.41;5033020;28;20028;-52
2022/10/08 06:31:22;;;;;;;4.03;0.80;;;;;;;25.11;37.69;102164.75;5033023;28;20025;-55
2022/10/08 06:33:51;;;;;;;3.40;0.80;;;;;;;25.14;37.39;102166.59;5032827;28;20036;-51
2022/10/08 06:36:25;;;;;;;2.30;1.00;;;;;;;25.16;37.21;102168.41;5032814;28;20030;-53
2022/10/08 06:38:56;;;;;;;5.83;1.00;;;;;;;25.09;37.61;102171.69;5032783;28;20026;-51
2022/10/08 06:41:25;;;;;;;2.63;0.80;;;;;;;25.14;37.60;102179.72;5033243;28;20265;-54
2022/10/08 06:43:54;;;;;;;4.82;1.52;;;;;;;25.11;37.45;102179.63;5032568;28;20114;-54
2022/10/08 06:46:23;;;;;;;6.43;0.93;;;;;;;25.11;37.39;102187.50;5032995;28;20018;-54
2022/10/08 06:48:51;;;;;;;1.67;0.65;;;;;;;25.13;37.53;102183.19;5032564;28;20419;-54
2022/10/08 06:51:20;;;;;;;2.00;1.00;;;;;;;25.14;37.46;102184.97;5031495;28;20384;-54
2022/10/08 06:53:54;;;;;;;2.97;0.95;;;;;;;25.08;37.63;102180.41;5031612;28;20053;-55
2022/10/08 06:56:22;;;;;;;2.03;0.75;;;;;;;25.10;37.66;102189.22;5032484;28;20064;-52
2022/10/08 06:58:51;;;;;;;2.50;0.85;;;;;;;25.08;37.86;102187.41;5032566;28;20029;-53
2022/10/08 07:01:20;;;;;;;2.28;0.88;;;;;;;25.16;37.73;102196.38;5032588;28;20467;-55
2022/10/08 07:03:54;;;;;;;2.97;1.00;;;;;;;25.13;37.54;102204.19;5032431;28;20036;-54
2022/10/08 07:06:23;;;;;;;2.45;1.00;;;;;;;25.16;37.51;102201.63;5032093;28;20052;-55
2022/10/08 07:08:53;;;;;;;2.13;0.82;;;;;;;25.16;37.47;102210.41;5032581;28;20038;-55
2022/10/08 07:11:22;;;;;;;5.75;1.08;;;;;;;25.16;37.91;102217.38;5032748;28;20476;-55
2022/10/08 07:13:50;;;;;;;3.00;0.80;;;;;;;25.19;37.73;102220.09;5048026;28;20030;-54
2022/10/08 07:16:21;;;;;;;1.85;0.60;;;;;;;25.15;37.60;102221.75;5032591;28;20068;-54
2022/10/08 07:18:50;;;;;;;1.52;0.50;;;;;;;25.18;37.92;102223.56;5032486;28;20034;-55
2022/10/08 07:21:19;;;;;;;4.13;1.42;;;;;;;25.18;37.89;102221.84;5032272;28;20161;-55
2022/10/08 07:23:48;;;;;;;4.15;1.02;;;;;;;25.23;37.40;102229.84;5047666;28;20033;-55
2022/10/08 07:26:18;;;;;;;4.95;1.10;;;;;;;25.18;37.95;102219.22;5031457;28;20387;-55
2022/10/08 07:28:52;;;;;;;3.30;0.85;;;;;;;25.24;37.59;102229.00;5032016;28;20510;-54
2022/10/08 07:31:23;;;;;;;3.83;0.82;;;;;;;25.24;37.77;102230.72;5034371;28;20025;-56
2022/10/08 07:33:51;;;;;;;3.50;1.25;;;;;;;25.28;37.83;102241.38;5035507;28;20433;-55
2022/10/08 07:36:21;;;;;;;3.95;0.70;;;;;;;25.36;37.41;102245.94;5035456;28;20033;-55
2022/10/08 07:38:54;;;;;;;2.50;0.88;;;;;;;25.31;37.56;102246.72;5035720;28;20036;-55
2022/10/08 07:41:22;;;;;;;4.57;0.73;;;;;;;25.34;37.79;102253.78;5035710;28;20030;-55
2022/10/08 07:43:57;;;;;;;2.28;0.80;;;;;;;25.34;37.41;102259.03;5035662;28;20033;-54
2022/10/08 07:46:25;;;;;;;;;;;;;;;25.36;37.68;102259.06;5036500;28;20171;-55
2022/10/08 07:48:55;;;;;;;2.30;0.70;;;;;;;25.44;37.54;102265.47;5035721;28;19913;-53
2022/10/08 07:51:23;;;;;;;6.55;0.90;;;;;;;25.48;37.66;102251.59;5035330;28;20095;-55
2022/10/08 07:53:52;;;;;;;2.28;0.77;;;;;;;25.50;37.66;102267.38;5035546;28;20026;-54
2022/10/08 07:56:21;;;;;;;2.10;0.70;;;;;;;25.53;37.68;102259.59;5035549;28;20032;-55
2022/10/08 07:58:50;;;;;;;5.78;0.88;;;;;;;25.57;37.70;102264.97;5035229;28;20364;-53
2022/10/08 08:01:21;;;;;;;2.38;0.63;;;;;;;25.54;37.82;102257.00;5035464;28;20064;-55
2022/10/08 08:04:02;;;;;;;4.18;1.17;;;;;;;25.54;37.72;102267.50;5035255;28;20402;-55
2022/10/08 08:06:31;;;;;;;6.47;1.13;;;;;;;25.62;37.84;102265.06;5035270;28;20035;-54
2022/10/08 08:09:00;;;;;;;1.63;1.05;;;;;;;25.64;37.69;102268.63;5029116;28;20522;-55
2022/10/08 08:11:28;;;;;;;3.95;0.75;;;;;;;25.69;37.65;102272.28;5019585;28;20117;-53
2022/10/08 08:13:55;;;;;;;4.03;1.17;;;;;;;25.65;37.51;102266.91;5014146;28;20022;-54
2022/10/08 08:16:26;;;;;;;2.85;0.90;;;;;;;25.68;37.85;102280.09;5013938;28;20499;-55
2022/10/08 08:18:57;;;;;;;3.22;0.90;;;;;;;25.70;37.89;102281.94;5014096;28;20034;-54
2022/10/08 08:21:27;;;;;;;4.68;1.38;;;;;;;25.71;37.89;102282.81;5012861;28;20026;-52
2022/10/08 08:23:56;;;;;;;1.67;0.63;;;;;;;25.76;37.87;102274.22;5013819;28;20488;-54
2022/10/08 08:26:31;;;;;;;3.08;1.00;;;;;;;25.80;37.68;102269.94;5017218;28;20099;-52
2022/10/08 08:29:03;;;;;;;3.80;1.00;;;;;;;25.78;37.77;102274.25;5013369;28;20026;-51
2022/10/08 08:31:32;;;;;;;3.75;0.82;;;;;;;25.86;37.63;102277.09;5028017;28;20087;-54
2022/10/08 08:34:03;;;;;;;5.55;1.05;;;;;;;25.91;37.66;102283.34;5019857;28;20029;-54
2022/10/08 08:36:34;;;;;;;4.82;1.20;;;;;;;25.92;37.59;102282.50;5014535;28;20030;-54
2022/10/08 08:39:02;;;;;;;7.20;1.25;;;;;;;25.95;37.79;102287.81;5019248;28;20550;-53
2022/10/08 08:42:08;;;;;;;2.38;0.82;;;;;;;25.99;37.67;102280.91;5013528;28;20175;-54
2022/10/08 08:44:39;;;;;;;4.07;1.20;;;;;;;26.02;37.64;102286.25;5012194;28;20385;-53
2022/10/08 08:47:12;;;;;;;3.10;1.23;;;;;;;26.07;37.63;102293.38;5013734;28;20171;-52
2022/10/08 08:49:46;;;;;;;4.35;1.17;;;;;;;26.04;37.52;102298.59;5013834;28;20140;-50
2022/10/08 08:52:16;;;;;;;2.67;1.10;;;;;;;26.07;37.46;102296.03;5012290;28;20137;-53
2022/10/08 08:54:48;;;;;;;1.40;0.68;;;;;;;26.09;37.78;102301.34;4998581;28;20311;-53
2022/10/08 08:57:22;;;;;;;2.40;0.98;;;;;;;26.11;37.78;102299.66;5014000;28;20029;-52
2022/10/08 08:59:54;;;;;;;1.95;0.80;;;;;;;26.12;37.54;102305.81;5011946;28;20044;-55
2022/10/08 09:02:29;;;;;;;4.03;1.05;;;;;;;26.08;37.56;102300.44;5012343;28;20030;-55
2022/10/08 09:05:00;;;;;;;3.78;0.85;;;;;;;26.14;37.70;102297.13;5012562;28;20447;-54
2022/10/08 09:07:33;;;;;;;3.95;1.05;;;;;;;26.22;37.40;102306.06;5011681;28;20072;-54
2022/10/08 09:10:04;;;;;;;3.30;0.90;;;;;;;26.24;37.46;102307.00;5011598;28;20487;-56
2022/10/08 09:12:38;;;;;;;3.95;1.25;;;;;;;26.22;37.73;102300.81;5012426;28;20038;-55
2022/10/08 09:15:19;;;;;;;3.58;0.82;;;;;;;26.29;37.41;102308.88;5013486;28;20439;-54
2022/10/08 09:17:50;;;;;;;3.83;1.27;;;;;;;26.33;37.62;102306.34;5008529;28;20407;-54
2022/10/08 09:20:21;;;;;;;2.35;1.10;;;;;;;26.32;37.40;102303.66;5009809;28;20424;-54
2022/10/08 09:22:50;;;;;;;6.43;1.63;;;;;;;26.38;37.38;102316.97;5012599;28;20045;-55
2022/10/08 09:25:23;;;;;;;2.72;0.85;;;;;;;26.40;37.46;102310.00;5009607;28;20034;-55
2022/10/08 09:27:54;;;;;;;2.40;1.05;;;;;;;26.42;37.52;102310.94;5013077;28;20053;-55
2022/10/08 09:30:27;;;;;;;3.50;1.13;;;;;;;26.42;37.42;102317.94;5016411;28;20437;-54
2022/10/08 09:32:57;;;;;;;4.53;1.60;;;;;;;26.41;37.36;102309.16;5023499;28;20022;-53
2022/10/08 09:35:25;;;;;;;3.03;0.98;;;;;;;26.42;37.39;102317.94;5012257;28;20025;-55
2022/10/08 09:37:52;;;;;;;2.92;0.90;;;;;;;26.44;37.49;102310.97;5012773;28;20026;-54
2022/10/08 09:40:26;;;;;;;2.80;1.00;;;;;;;26.39;37.39;102311.72;5012199;28;20034;-52
2022/10/08 09:43:15;;;;;;;3.78;1.30;;;;;;;26.43;37.61;102310.09;5011181;28;20030;-54
2022/10/08 09:45:43;;;;;;;3.08;1.00;;;;;;;26.47;37.44;102314.59;5013533;28;20029;-54
2022/10/08 09:48:30;;;;;;;3.33;0.90;;;;;;;26.43;37.53;102312.72;5015239;28;20022;-55
2022/10/08 09:51:13;;;;;;;2.95;1.00;;;;;;;26.41;37.70;102300.34;5009349;28;20029;-54
2022/10/08 09:53:52;;;;;;;3.40;1.05;;;;;;;26.47;37.63;102314.59;5011234;28;20084;-54
2022/10/08 09:56:26;;;;;;;6.68;1.30;;;;;;;26.46;37.64;102314.53;5011689;28;20021;-54
2022/10/08 09:58:55;;;;;;;;;;;;;;;26.43;37.74;102310.09;5012526;28;20029;-55
2022/10/08 10:01:24;;;;;;;4.13;1.17;;;;;;;26.53;37.61;102316.47;5010909;28;19919;-55
2022/10/08 10:03:54;;;;;;;3.10;1.05;;;;;;;26.50;37.52;102312.00;5012023;28;20104;-54
2022/10/08 10:06:33;;;;;;;4.50;1.20;;;;;;;26.49;37.42;102309.34;5012048;28;20041;-55
2022/10/08 10:09:22;;;;;;;4.78;1.30;;;;;;;26.53;37.41;102308.56;5012022;28;20400;-55
2022/10/08 10:11:55;;;;;;;5.90;1.33;;;;;;;26.52;37.54;102314.69;5008953;28;20476;-52
2022/10/08 10:14:27;;;;;;;2.75;1.05;;;;;;;26.53;37.72;102313.84;5008130;28;20468;-53
2022/10/08 10:17:34;;;;;;;4.10;1.20;;;;;;;26.53;37.57;102313.84;5011961;28;20026;-54
2022/10/08 10:20:06;;;;;;;2.22;0.75;;;;;;;26.58;37.38;102303.41;5002307;28;20042;-54
2022/10/08 10:22:57;;;;;;;4.63;1.30;;;;;;;26.62;37.39;102311.41;5009246;28;20032;-56
2022/10/08 10:25:42;;;;;;;3.45;0.70;;;;;;;26.65;37.44;102305.31;5010940;28;20064;-55
2022/10/08 10:28:15;;;;;;;3.28;1.20;;;;;;;26.67;37.40;102308.88;5010504;28;20489;-56
2022/10/08 10:30:57;;;;;;;3.28;1.02;;;;;;;26.63;37.28;102312.31;5011204;28;20068;-54
2022/10/08 10:33:28;;;;;;;2.63;0.90;;;;;;;26.65;37.31;102311.47;5010079;28;20388;-55
2022/10/08 10:35:59;;;;;;;3.65;0.93;;;;;;;26.65;37.54;102307.94;5011160;28;20037;-56
2022/10/08 10:38:29;;;;;;;3.17;0.90;;;;;;;26.66;37.21;102308.00;5010503;28;20034;-55
2022/10/08 10:41:36;;;;;;;4.85;1.23;;;;;;;26.66;37.64;102310.63;5012059;28;20034;-55
2022/10/08 10:44:09;;;;;;;3.80;0.68;;;;;;;26.72;37.34;102312.50;5007080;28;20424;-52
2022/10/08 10:46:44;;;;;;;4.20;1.00;;;;;;;26.62;37.21;102295.59;5011085;28;20026;-56
2022/10/08 10:49:19;;;;;;;2.17;1.00;;;;;;;26.66;37.20;102308.00;5011830;28;20030;-55
2022/10/08 10:51:54;;;;;;;3.75;1.40;;;;;;;26.69;37.36;102312.44;5016085;28;20042;-55
2022/10/08 10:54:42;;;;;;;3.65;1.33;;;;;;;26.66;37.20;102305.34;5010858;28;20030;-54
2022/10/08 10:57:18;;;;;;;3.42;0.70;;;;;;;26.66;37.18;102300.09;5011795;28;20061;-55
2022/10/08 10:59:51;;;;;;;2.90;0.98;;;;;;;26.68;36.95;102301.03;5011735;28;20062;-55
2022/10/08 11:02:58;;;;;;;2.95;0.90;;;;;;;26.65;36.82;102305.31;5016225;28;20113;-56
2022/10/08 11:05:31;;;;;;;6.22;1.15;;;;;;;26.66;36.83;102292.19;5008962;28;20454;-55
2022/10/08 11:08:21;;;;;;;4.22;0.95;;;;;;;26.62;36.72;102297.38;5014656;28;20026;-55
2022/10/08 11:11:09;;;;;;;5.18;0.95;;;;;;;26.61;37.11;102298.22;5018190;28;20046;-55
2022/10/08 11:14:15;;;;;;;4.68;1.42;;;;;;;26.61;36.90;102282.44;5015210;28;20044;-55
2022/10/08 11:16:47;;;;;;;5.00;1.98;;;;;;;26.68;36.95;102289.59;5014864;28;20077;-54
2022/10/08 11:19:54;;;;;;;5.32;2.15;;;;;;;26.64;36.86;102290.41;5014098;28;20054;-53
2022/10/08 11:22:33;;;;;;;6.13;2.90;;;;;;;26.67;36.81;102298.34;5015075;28;20042;-55
2022/10/08 11:25:27;;;;;;;8.32;2.38;;;;;;;26.65;36.97;102285.16;5011482;28;20034;-55
2022/10/08 11:28:03;;;;;;;7.28;2.97;;;;;;;26.58;36.82;102271.81;5018265;28;20082;-56
2022/10/08 11:30:46;;;;;;;6.88;2.42;;;;;;;26.66;37.05;102286.03;5015398;28;20095;-55
2022/10/08 11:33:16;;;;;;;7.88;2.35;;;;;;;26.69;36.99;102278.22;5017629;28;20180;-55
2022/10/08 11:36:05;;;;;;;6.13;2.00;;;;;;;26.73;36.73;102277.44;5015310;28;20018;-55
2022/10/08 11:38:58;;;;;;;7.47;2.30;;;;;;;26.72;36.28;102278.28;5015699;28;20021;-56
2022/10/08 11:41:45;;;;;;;5.75;2.42;;;;;;;26.72;36.38;102273.00;5010226;28;20492;-56
2022/10/08 11:44:14;;;;;;;5.25;2.08;;;;;;;26.74;35.89;102262.50;5013336;28;20131;-55
2022/10/08 11:46:42;;;;;;;5.55;1.80;;;;;;;26.80;35.56;102273.22;5015302;28;20033;-55
2022/10/08 11:49:29;;;;;;;5.30;2.05;;;;;;;26.78;35.94;102264.34;5017197;28;20026;-55
2022/10/08 11:52:14;;;;;;;5.28;1.90;;;;;;;26.73;36.11;102261.63;5018087;28;20456;-56
2022/10/08 11:54:42;;;;;;;8.70;1.93;;;;;;;26.75;35.70;102265.19;4997820;28;20037;-55